sensor_id;sensor_type;location;lat;lon;timestamp;P1;durP1;ratioP1;P2;durP2;ratioP2
14001;SDS011;7076;51.280;12.584;2023-04-24T00:00:13;0.80;;;0.77;;
14001;SDS011;7076;51.280;12.584;2023-04-24T00:05:17;0.70;;;0.70;;
14001;SDS011;7076;51.280;12.584;2023-04-24T00:10:19;0.82;;;0.68;;
14001;SDS011;7076;51.280;12.584;2023-04-24T00:15:23;0.57;;;0.57;;
14001;SDS011;7076;51.280;12.584;2023-04-24T00:20:26;0.80;;;0.60;;
14001;SDS011;7076;51.280;12.584;2023-04-24T00:25:29;0.40;;;0.40;;
14001;SDS011;7076;51.280;12.584;2023-04-24T00:30:33;0.40;;;0.40;;
14001;SDS011;7076;51.280;12.584;2023-04-24T00:35:36;1.08;;;0.70;;
14001;SDS011;7076;51.280;12.584;2023-04-24T00:40:39;1.30;;;0.50;;
14001;SDS011;7076;51.280;12.584;2023-04-24T00:45:43;0.65;;;0.60;;
14001;SDS011;7076;51.280;12.584;2023-04-24T00:50:45;0.65;;;0.65;;
14001;SDS011;7076;51.280;12.584;2023-04-24T00:55:48;1.63;;;0.85;;
14001;SDS011;7076;51.280;12.584;2023-04-24T01:00:52;1.05;;;0.90;;
14001;SDS011;7076;51.280;12.584;2023-04-24T01:05:55;0.90;;;0.70;;
14001;SDS011;7076;51.280;12.584;2023-04-24T01:10:58;1.67;;;0.90;;
14001;SDS011;7076;51.280;12.584;2023-04-24T01:16:02;1.40;;;0.77;;
14001;SDS011;7076;51.280;12.584;2023-04-24T01:21:05;0.90;;;0.88;;
14001;SDS011;7076;51.280;12.584;2023-04-24T01:26:10;0.93;;;0.93;;
14001;SDS011;7076;51.280;12.584;2023-04-24T01:31:12;1.70;;;0.80;;
14001;SDS011;7076;51.280;12.584;2023-04-24T01:36:15;1.50;;;1.00;;
14001;SDS011;7076;51.280;12.584;2023-04-24T01:41:20;2.45;;;0.73;;
14001;SDS011;7076;51.280;12.584;2023-04-24T01:46:23;2.20;;;0.90;;
14001;SDS011;7076;51.280;12.584;2023-04-24T01:51:26;1.25;;;0.70;;
14001;SDS011;7076;51.280;12.584;2023-04-24T01:56:32;2.30;;;0.85;;
14001;SDS011;7076;51.280;12.584;2023-04-24T02:01:36;3.67;;;0.90;;
14001;SDS011;7076;51.280;12.584;2023-04-24T02:06:38;1.88;;;0.80;;
14001;SDS011;7076;51.280;12.584;2023-04-24T02:11:42;0.88;;;0.80;;
14001;SDS011;7076;51.280;12.584;2023-04-24T02:16:45;0.80;;;0.80;;
14001;SDS011;7076;51.280;12.584;2023-04-24T02:21:47;1.50;;;0.73;;
14001;SDS011;7076;51.280;12.584;2023-04-24T02:26:51;2.65;;;0.95;;
14001;SDS011;7076;51.280;12.584;2023-04-24T02:31:54;0.80;;;0.80;;
14001;SDS011;7076;51.280;12.584;2023-04-24T02:36:57;2.55;;;0.90;;
14001;SDS011;7076;51.280;12.584;2023-04-24T02:42:01;1.42;;;0.80;;
14001;SDS011;7076;51.280;12.584;2023-04-24T02:47:04;2.35;;;1.10;;
14001;SDS011;7076;51.280;12.584;2023-04-24T02:52:07;1.38;;;0.80;;
14001;SDS011;7076;51.280;12.584;2023-04-24T02:57:11;1.63;;;0.70;;
14001;SDS011;7076;51.280;12.584;2023-04-24T03:02:16;2.85;;;0.88;;
14001;SDS011;7076;51.280;12.584;2023-04-24T03:07:19;2.33;;;0.80;;
14001;SDS011;7076;51.280;12.584;2023-04-24T03:12:23;1.63;;;0.90;;
14001;SDS011;7076;51.280;12.584;2023-04-24T03:17:26;4.72;;;0.75;;
14001;SDS011;7076;51.280;12.584;2023-04-24T03:22:29;1.77;;;1.13;;
14001;SDS011;7076;51.280;12.584;2023-04-24T03:27:35;1.00;;;0.88;;
14001;SDS011;7076;51.280;12.584;2023-04-24T03:32:51;0.80;;;0.77;;
14001;SDS011;7076;51.280;12.584;2023-04-24T03:37:58;0.93;;;0.80;;
14001;SDS011;7076;51.280;12.584;2023-04-24T03:43:22;1.10;;;0.80;;
14001;SDS011;7076;51.280;12.584;2023-04-24T03:48:25;0.98;;;0.75;;
14001;SDS011;7076;51.280;12.584;2023-04-24T03:53:28;0.70;;;0.70;;
14001;SDS011;7076;51.280;12.584;2023-04-24T03:58:32;1.38;;;1.05;;
14001;SDS011;7076;51.280;12.584;2023-04-24T04:03:35;1.45;;;0.90;;
14001;SDS011;7076;51.280;12.584;2023-04-24T04:08:39;1.13;;;0.80;;
14001;SDS011;7076;51.280;12.584;2023-04-24T04:13:43;0.90;;;0.80;;
14001;SDS011;7076;51.280;12.584;2023-04-24T04:18:47;2.85;;;1.00;;
14001;SDS011;7076;51.280;12.584;2023-04-24T04:23:49;1.90;;;0.77;;
14001;SDS011;7076;51.280;12.584;2023-04-24T04:29:04;1.05;;;0.70;;
14001;SDS011;7076;51.280;12.584;2023-04-24T04:34:11;1.60;;;0.80;;
14001;SDS011;7076;51.280;12.584;2023-04-24T04:39:15;2.25;;;0.90;;
14001;SDS011;7076;51.280;12.584;2023-04-24T04:44:41;0.88;;;0.63;;
14001;SDS011;7076;51.280;12.584;2023-04-24T04:49:49;2.17;;;0.63;;
14001;SDS011;7076;51.280;12.584;2023-04-24T04:54:56;3.92;;;2.45;;
14001;SDS011;7076;51.280;12.584;2023-04-24T05:00:09;5.28;;;3.22;;
14001;SDS011;7076;51.280;12.584;2023-04-24T05:05:21;1.45;;;1.33;;
14001;SDS011;7076;51.280;12.584;2023-04-24T05:10:24;1.00;;;0.90;;
14001;SDS011;7076;51.280;12.584;2023-04-24T05:15:30;1.33;;;1.00;;
14001;SDS011;7076;51.280;12.584;2023-04-24T05:20:34;1.08;;;0.90;;
14001;SDS011;7076;51.280;12.584;2023-04-24T05:25:37;3.05;;;0.93;;
14001;SDS011;7076;51.280;12.584;2023-04-24T05:30:46;1.33;;;1.10;;
14001;SDS011;7076;51.280;12.584;2023-04-24T05:35:50;3.38;;;0.70;;
14001;SDS011;7076;51.280;12.584;2023-04-24T05:40:54;1.80;;;0.85;;
14001;SDS011;7076;51.280;12.584;2023-04-24T05:45:58;1.00;;;0.90;;
14001;SDS011;7076;51.280;12.584;2023-04-24T05:51:01;2.92;;;0.95;;
14001;SDS011;7076;51.280;12.584;2023-04-24T05:56:04;1.75;;;0.88;;
14001;SDS011;7076;51.280;12.584;2023-04-24T06:01:10;0.80;;;0.80;;
14001;SDS011;7076;51.280;12.584;2023-04-24T06:06:14;3.08;;;0.88;;
14001;SDS011;7076;51.280;12.584;2023-04-24T06:11:17;0.85;;;0.85;;
14001;SDS011;7076;51.280;12.584;2023-04-24T06:16:22;1.35;;;0.73;;
14001;SDS011;7076;51.280;12.584;2023-04-24T06:21:32;1.00;;;0.90;;
14001;SDS011;7076;51.280;12.584;2023-04-24T06:26:35;1.05;;;0.80;;
14001;SDS011;7076;51.280;12.584;2023-04-24T06:31:39;0.90;;;0.80;;
14001;SDS011;7076;51.280;12.584;2023-04-24T06:36:46;2.75;;;1.35;;
14001;SDS011;7076;51.280;12.584;2023-04-24T06:41:49;2.83;;;0.57;;
14001;SDS011;7076;51.280;12.584;2023-04-24T06:46:55;0.93;;;0.50;;
14001;SDS011;7076;51.280;12.584;2023-04-24T06:51:58;1.27;;;0.65;;
14001;SDS011;7076;51.280;12.584;2023-04-24T06:57:01;1.45;;;0.75;;
14001;SDS011;7076;51.280;12.584;2023-04-24T07:02:09;0.70;;;0.60;;
14001;SDS011;7076;51.280;12.584;2023-04-24T07:07:25;0.70;;;0.60;;
14001;SDS011;7076;51.280;12.584;2023-04-24T07:12:29;0.65;;;0.63;;
14001;SDS011;7076;51.280;12.584;2023-04-24T07:17:33;0.82;;;0.60;;
14001;SDS011;7076;51.280;12.584;2023-04-24T07:22:36;0.75;;;0.50;;
14001;SDS011;7076;51.280;12.584;2023-04-24T07:27:39;1.50;;;0.70;;
14001;SDS011;7076;51.280;12.584;2023-04-24T07:32:43;1.52;;;0.70;;
14001;SDS011;7076;51.280;12.584;2023-04-24T07:37:49;1.20;;;0.60;;
14001;SDS011;7076;51.280;12.584;2023-04-24T07:42:57;1.63;;;0.60;;
14001;SDS011;7076;51.280;12.584;2023-04-24T07:48:04;0.90;;;0.70;;
14001;SDS011;7076;51.280;12.584;2023-04-24T07:53:08;1.60;;;0.70;;
14001;SDS011;7076;51.280;12.584;2023-04-24T07:58:15;2.33;;;0.60;;
14001;SDS011;7076;51.280;12.584;2023-04-24T08:03:21;1.70;;;0.60;;
14001;SDS011;7076;51.280;12.584;2023-04-24T08:08:28;0.40;;;0.40;;
14001;SDS011;7076;51.280;12.584;2023-04-24T08:13:31;1.13;;;0.57;;
14001;SDS011;7076;51.280;12.584;2023-04-24T08:18:36;1.20;;;0.80;;
14001;SDS011;7076;51.280;12.584;2023-04-24T08:23:45;1.25;;;0.82;;
14001;SDS011;7076;51.280;12.584;2023-04-24T08:28:50;3.38;;;0.63;;
14001;SDS011;7076;51.280;12.584;2023-04-24T08:33:56;0.65;;;0.65;;
14001;SDS011;7076;51.280;12.584;2023-04-24T08:39:02;0.68;;;0.50;;
14001;SDS011;7076;51.280;12.584;2023-04-24T08:44:05;1.40;;;0.70;;
14001;SDS011;7076;51.280;12.584;2023-04-24T08:49:12;3.75;;;0.75;;
14001;SDS011;7076;51.280;12.584;2023-04-24T08:54:17;2.22;;;0.60;;
14001;SDS011;7076;51.280;12.584;2023-04-24T08:59:20;1.35;;;0.70;;
14001;SDS011;7076;51.280;12.584;2023-04-24T09:04:25;1.92;;;0.60;;
14001;SDS011;7076;51.280;12.584;2023-04-24T09:09:29;1.05;;;0.50;;
14001;SDS011;7076;51.280;12.584;2023-04-24T09:14:32;2.03;;;0.57;;
14001;SDS011;7076;51.280;12.584;2023-04-24T09:19:38;0.60;;;0.50;;
14001;SDS011;7076;51.280;12.584;2023-04-24T09:24:41;1.67;;;0.50;;
14001;SDS011;7076;51.280;12.584;2023-04-24T09:29:53;0.43;;;0.43;;
14001;SDS011;7076;51.280;12.584;2023-04-24T09:35:07;1.55;;;0.50;;
14001;SDS011;7076;51.280;12.584;2023-04-24T09:40:11;0.43;;;0.40;;
14001;SDS011;7076;51.280;12.584;2023-04-24T09:45:13;0.43;;;0.43;;
14001;SDS011;7076;51.280;12.584;2023-04-24T09:50:18;0.85;;;0.40;;
14001;SDS011;7076;51.280;12.584;2023-04-24T09:55:22;3.70;;;0.50;;
14001;SDS011;7076;51.280;12.584;2023-04-24T10:00:26;1.10;;;0.40;;
14001;SDS011;7076;51.280;12.584;2023-04-24T10:05:31;1.85;;;0.60;;
14001;SDS011;7076;51.280;12.584;2023-04-24T10:10:37;2.00;;;0.60;;
14001;SDS011;7076;51.280;12.584;2023-04-24T10:15:41;1.17;;;0.50;;
14001;SDS011;7076;51.280;12.584;2023-04-24T10:20:45;2.33;;;0.52;;
14001;SDS011;7076;51.280;12.584;2023-04-24T10:25:48;2.08;;;0.60;;
14001;SDS011;7076;51.280;12.584;2023-04-24T10:30:51;1.08;;;0.75;;
14001;SDS011;7076;51.280;12.584;2023-04-24T10:35:58;2.47;;;0.90;;
14001;SDS011;7076;51.280;12.584;2023-04-24T10:41:08;1.38;;;0.50;;
14001;SDS011;7076;51.280;12.584;2023-04-24T10:46:16;1.65;;;0.90;;
14001;SDS011;7076;51.280;12.584;2023-04-24T10:51:21;0.88;;;0.60;;
14001;SDS011;7076;51.280;12.584;2023-04-24T10:56:23;1.63;;;0.70;;
14001;SDS011;7076;51.280;12.584;2023-04-24T11:01:27;3.30;;;0.73;;
14001;SDS011;7076;51.280;12.584;2023-04-24T11:06:32;1.80;;;0.70;;
14001;SDS011;7076;51.280;12.584;2023-04-24T11:11:36;1.23;;;0.60;;
14001;SDS011;7076;51.280;12.584;2023-04-24T11:16:42;0.65;;;0.60;;
14001;SDS011;7076;51.280;12.584;2023-04-24T11:22:03;0.90;;;0.50;;
14001;SDS011;7076;51.280;12.584;2023-04-24T11:27:11;2.80;;;1.00;;
14001;SDS011;7076;51.280;12.584;2023-04-24T11:32:22;1.67;;;0.70;;
14001;SDS011;7076;51.280;12.584;2023-04-24T11:37:36;1.08;;;0.63;;
14001;SDS011;7076;51.280;12.584;2023-04-24T11:42:49;2.53;;;2.10;;
14001;SDS011;7076;51.280;12.584;2023-04-24T11:47:59;6.22;;;1.00;;
14001;SDS011;7076;51.280;12.584;2023-04-24T11:53:10;1.45;;;0.77;;
14001;SDS011;7076;51.280;12.584;2023-04-24T11:58:20;1.98;;;0.98;;
14001;SDS011;7076;51.280;12.584;2023-04-24T12:03:23;1.73;;;0.68;;
14001;SDS011;7076;51.280;12.584;2023-04-24T12:08:41;3.40;;;1.05;;
14001;SDS011;7076;51.280;12.584;2023-04-24T12:13:54;1.63;;;0.80;;
14001;SDS011;7076;51.280;12.584;2023-04-24T12:18:56;3.30;;;2.00;;
14001;SDS011;7076;51.280;12.584;2023-04-24T12:24:01;0.80;;;0.77;;
14001;SDS011;7076;51.280;12.584;2023-04-24T12:29:04;1.30;;;0.52;;
14001;SDS011;7076;51.280;12.584;2023-04-24T12:34:17;1.00;;;0.80;;
14001;SDS011;7076;51.280;12.584;2023-04-24T12:39:21;1.23;;;0.70;;
14001;SDS011;7076;51.280;12.584;2023-04-24T12:44:28;0.85;;;0.70;;
14001;SDS011;7076;51.280;12.584;2023-04-24T12:49:42;1.13;;;0.60;;
14001;SDS011;7076;51.280;12.584;2023-04-24T12:54:49;0.77;;;0.77;;
14001;SDS011;7076;51.280;12.584;2023-04-24T12:59:54;2.08;;;1.00;;
14001;SDS011;7076;51.280;12.584;2023-04-24T13:04:59;3.75;;;0.90;;
14001;SDS011;7076;51.280;12.584;2023-04-24T13:10:22;2.72;;;1.10;;
14001;SDS011;7076;51.280;12.584;2023-04-24T13:15:31;0.95;;;0.85;;
14001;SDS011;7076;51.280;12.584;2023-04-24T13:20:33;1.38;;;1.05;;
14001;SDS011;7076;51.280;12.584;2023-04-24T13:25:42;1.02;;;0.93;;
14001;SDS011;7076;51.280;12.584;2023-04-24T13:30:48;3.08;;;1.23;;
14001;SDS011;7076;51.280;12.584;2023-04-24T13:35:56;2.78;;;1.00;;
14001;SDS011;7076;51.280;12.584;2023-04-24T13:41:00;1.63;;;0.98;;
14001;SDS011;7076;51.280;12.584;2023-04-24T13:46:12;2.00;;;0.90;;
14001;SDS011;7076;51.280;12.584;2023-04-24T13:51:14;1.25;;;1.00;;
14001;SDS011;7076;51.280;12.584;2023-04-24T13:56:24;0.60;;;0.60;;
14001;SDS011;7076;51.280;12.584;2023-04-24T14:01:32;1.25;;;0.80;;
14001;SDS011;7076;51.280;12.584;2023-04-24T14:06:54;1.30;;;0.70;;
14001;SDS011;7076;51.280;12.584;2023-04-24T14:11:58;1.70;;;0.80;;
14001;SDS011;7076;51.280;12.584;2023-04-24T14:17:02;1.15;;;0.70;;
14001;SDS011;7076;51.280;12.584;2023-04-24T14:22:05;1.00;;;1.00;;
14001;SDS011;7076;51.280;12.584;2023-04-24T14:27:09;1.30;;;0.57;;
14001;SDS011;7076;51.280;12.584;2023-04-24T14:32:12;2.25;;;0.60;;
14001;SDS011;7076;51.280;12.584;2023-04-24T14:37:16;0.40;;;0.40;;
14001;SDS011;7076;51.280;12.584;2023-04-24T14:42:20;0.52;;;0.52;;
14001;SDS011;7076;51.280;12.584;2023-04-24T14:47:23;3.80;;;0.68;;
14001;SDS011;7076;51.280;12.584;2023-04-24T14:52:26;2.15;;;0.70;;
14001;SDS011;7076;51.280;12.584;2023-04-24T14:57:30;0.55;;;0.55;;
14001;SDS011;7076;51.280;12.584;2023-04-24T15:02:33;2.70;;;0.70;;
14001;SDS011;7076;51.280;12.584;2023-04-24T15:07:36;1.77;;;0.60;;
14001;SDS011;7076;51.280;12.584;2023-04-24T15:12:41;0.45;;;0.38;;
14001;SDS011;7076;51.280;12.584;2023-04-24T15:17:44;2.45;;;0.50;;
14001;SDS011;7076;51.280;12.584;2023-04-24T15:22:51;0.98;;;0.32;;
14001;SDS011;7076;51.280;12.584;2023-04-24T15:28:05;1.17;;;0.40;;
14001;SDS011;7076;51.280;12.584;2023-04-24T15:33:10;0.45;;;0.30;;
14001;SDS011;7076;51.280;12.584;2023-04-24T15:38:18;0.50;;;0.40;;
14001;SDS011;7076;51.280;12.584;2023-04-24T15:43:24;0.32;;;0.30;;
14001;SDS011;7076;51.280;12.584;2023-04-24T15:48:30;1.15;;;0.30;;
14001;SDS011;7076;51.280;12.584;2023-04-24T15:53:34;1.95;;;0.30;;
14001;SDS011;7076;51.280;12.584;2023-04-24T15:58:44;0.20;;;0.20;;
14001;SDS011;7076;51.280;12.584;2023-04-24T16:03:48;1.13;;;0.30;;
14001;SDS011;7076;51.280;12.584;2023-04-24T16:09:05;0.47;;;0.30;;
14001;SDS011;7076;51.280;12.584;2023-04-24T16:14:17;0.38;;;0.38;;
14001;SDS011;7076;51.280;12.584;2023-04-24T16:19:30;0.40;;;0.20;;
14001;SDS011;7076;51.280;12.584;2023-04-24T16:24:43;1.75;;;0.20;;
14001;SDS011;7076;51.280;12.584;2023-04-24T16:29:53;0.30;;;0.30;;
14001;SDS011;7076;51.280;12.584;2023-04-24T16:35:00;1.38;;;0.20;;
14001;SDS011;7076;51.280;12.584;2023-04-24T16:40:21;0.32;;;0.32;;
14001;SDS011;7076;51.280;12.584;2023-04-24T16:45:28;0.40;;;0.40;;
14001;SDS011;7076;51.280;12.584;2023-04-24T16:50:30;0.55;;;0.40;;
14001;SDS011;7076;51.280;12.584;2023-04-24T16:55:33;0.47;;;0.47;;
14001;SDS011;7076;51.280;12.584;2023-04-24T17:00:37;0.47;;;0.40;;
14001;SDS011;7076;51.280;12.584;2023-04-24T17:05:40;0.40;;;0.40;;
14001;SDS011;7076;51.280;12.584;2023-04-24T17:10:47;0.40;;;0.40;;
14001;SDS011;7076;51.280;12.584;2023-04-24T17:15:59;0.40;;;0.40;;
14001;SDS011;7076;51.280;12.584;2023-04-24T17:21:15;0.50;;;0.40;;
14001;SDS011;7076;51.280;12.584;2023-04-24T17:26:22;0.30;;;0.30;;
14001;SDS011;7076;51.280;12.584;2023-04-24T17:31:27;0.65;;;0.50;;
14001;SDS011;7076;51.280;12.584;2023-04-24T17:36:29;0.63;;;0.40;;
14001;SDS011;7076;51.280;12.584;2023-04-24T17:41:32;0.82;;;0.40;;
14001;SDS011;7076;51.280;12.584;2023-04-24T17:46:36;0.50;;;0.50;;
14001;SDS011;7076;51.280;12.584;2023-04-24T17:51:39;0.40;;;0.40;;
14001;SDS011;7076;51.280;12.584;2023-04-24T17:56:42;0.95;;;0.63;;
14001;SDS011;7076;51.280;12.584;2023-04-24T18:01:46;1.63;;;0.63;;
14001;SDS011;7076;51.280;12.584;2023-04-24T18:06:49;0.63;;;0.60;;
14001;SDS011;7076;51.280;12.584;2023-04-24T18:12:00;0.77;;;0.40;;
14001;SDS011;7076;51.280;12.584;2023-04-24T18:17:09;0.75;;;0.63;;
14001;SDS011;7076;51.280;12.584;2023-04-24T18:22:15;0.60;;;0.52;;
14001;SDS011;7076;51.280;12.584;2023-04-24T18:27:27;1.15;;;0.60;;
14001;SDS011;7076;51.280;12.584;2023-04-24T18:32:36;0.98;;;0.50;;
14001;SDS011;7076;51.280;12.584;2023-04-24T18:37:39;1.75;;;0.80;;
14001;SDS011;7076;51.280;12.584;2023-04-24T18:42:41;1.88;;;0.93;;
14001;SDS011;7076;51.280;12.584;2023-04-24T18:47:46;0.93;;;0.90;;
14001;SDS011;7076;51.280;12.584;2023-04-24T18:52:49;1.15;;;0.80;;
14001;SDS011;7076;51.280;12.584;2023-04-24T18:57:52;2.25;;;1.27;;
14001;SDS011;7076;51.280;12.584;2023-04-24T19:02:56;0.82;;;0.80;;
14001;SDS011;7076;51.280;12.584;2023-04-24T19:07:58;1.13;;;1.02;;
14001;SDS011;7076;51.280;12.584;2023-04-24T19:13:01;0.82;;;0.82;;
14001;SDS011;7076;51.280;12.584;2023-04-24T19:18:05;0.70;;;0.70;;
14001;SDS011;7076;51.280;12.584;2023-04-24T19:23:08;0.85;;;0.85;;
14001;SDS011;7076;51.280;12.584;2023-04-24T19:28:11;2.08;;;1.88;;
14001;SDS011;7076;51.280;12.584;2023-04-24T19:33:16;2.40;;;2.10;;
14001;SDS011;7076;51.280;12.584;2023-04-24T19:38:18;3.55;;;2.03;;
14001;SDS011;7076;51.280;12.584;2023-04-24T19:43:21;1.88;;;1.60;;
14001;SDS011;7076;51.280;12.584;2023-04-24T19:48:25;2.70;;;2.00;;
14001;SDS011;7076;51.280;12.584;2023-04-24T19:53:31;2.10;;;1.70;;
14001;SDS011;7076;51.280;12.584;2023-04-24T19:58:48;1.52;;;1.40;;
14001;SDS011;7076;51.280;12.584;2023-04-24T20:03:55;2.13;;;1.92;;
14001;SDS011;7076;51.280;12.584;2023-04-24T20:08:58;2.50;;;1.88;;
14001;SDS011;7076;51.280;12.584;2023-04-24T20:14:00;1.75;;;1.63;;
14001;SDS011;7076;51.280;12.584;2023-04-24T20:19:05;2.38;;;2.05;;
14001;SDS011;7076;51.280;12.584;2023-04-24T20:24:08;2.70;;;2.45;;
14001;SDS011;7076;51.280;12.584;2023-04-24T20:29:11;2.60;;;2.40;;
14001;SDS011;7076;51.280;12.584;2023-04-24T20:34:15;2.45;;;2.10;;
14001;SDS011;7076;51.280;12.584;2023-04-24T20:39:21;4.00;;;2.22;;
14001;SDS011;7076;51.280;12.584;2023-04-24T20:44:24;5.30;;;2.97;;
14001;SDS011;7076;51.280;12.584;2023-04-24T20:49:31;3.88;;;2.47;;
14001;SDS011;7076;51.280;12.584;2023-04-24T20:54:36;3.55;;;2.50;;
14001;SDS011;7076;51.280;12.584;2023-04-24T20:59:45;6.35;;;2.70;;
14001;SDS011;7076;51.280;12.584;2023-04-24T21:04:50;3.85;;;2.80;;
14001;SDS011;7076;51.280;12.584;2023-04-24T21:09:53;3.55;;;2.55;;
14001;SDS011;7076;51.280;12.584;2023-04-24T21:14:56;3.55;;;2.78;;
14001;SDS011;7076;51.280;12.584;2023-04-24T21:20:08;2.90;;;2.28;;
14001;SDS011;7076;51.280;12.584;2023-04-24T21:25:13;4.45;;;2.28;;
14001;SDS011;7076;51.280;12.584;2023-04-24T21:30:16;4.85;;;2.80;;
14001;SDS011;7076;51.280;12.584;2023-04-24T21:35:21;3.90;;;2.40;;
14001;SDS011;7076;51.280;12.584;2023-04-24T21:40:24;3.22;;;2.53;;
14001;SDS011;7076;51.280;12.584;2023-04-24T21:45:26;4.95;;;2.80;;
14001;SDS011;7076;51.280;12.584;2023-04-24T21:50:30;3.30;;;2.72;;
14001;SDS011;7076;51.280;12.584;2023-04-24T21:55:33;3.50;;;3.03;;
14001;SDS011;7076;51.280;12.584;2023-04-24T22:00:40;3.30;;;2.53;;
14001;SDS011;7076;51.280;12.584;2023-04-24T22:05:46;4.85;;;2.88;;
14001;SDS011;7076;51.280;12.584;2023-04-24T22:10:49;7.18;;;2.88;;
14001;SDS011;7076;51.280;12.584;2023-04-24T22:15:53;5.63;;;3.20;;
14001;SDS011;7076;51.280;12.584;2023-04-24T22:20:58;6.57;;;3.20;;
14001;SDS011;7076;51.280;12.584;2023-04-24T22:26:01;4.28;;;3.50;;
14001;SDS011;7076;51.280;12.584;2023-04-24T22:31:04;4.05;;;2.60;;
14001;SDS011;7076;51.280;12.584;2023-04-24T22:36:09;3.30;;;2.75;;
14001;SDS011;7076;51.280;12.584;2023-04-24T22:41:12;5.65;;;2.70;;
14001;SDS011;7076;51.280;12.584;2023-04-24T22:46:14;5.20;;;2.85;;
14001;SDS011;7076;51.280;12.584;2023-04-24T22:51:19;4.53;;;3.08;;
14001;SDS011;7076;51.280;12.584;2023-04-24T22:56:21;2.97;;;2.50;;
14001;SDS011;7076;51.280;12.584;2023-04-24T23:01:25;2.97;;;2.47;;
14001;SDS011;7076;51.280;12.584;2023-04-24T23:06:29;3.90;;;2.70;;
14001;SDS011;7076;51.280;12.584;2023-04-24T23:11:32;3.88;;;2.83;;
14001;SDS011;7076;51.280;12.584;2023-04-24T23:16:35;6.25;;;2.50;;
14001;SDS011;7076;51.280;12.584;2023-04-24T23:21:40;3.67;;;2.42;;
14001;SDS011;7076;51.280;12.584;2023-04-24T23:26:43;4.28;;;2.28;;
14001;SDS011;7076;51.280;12.584;2023-04-24T23:31:45;3.60;;;2.38;;
14001;SDS011;7076;51.280;12.584;2023-04-24T23:36:49;3.10;;;2.17;;
14001;SDS011;7076;51.280;12.584;2023-04-24T23:41:52;2.80;;;2.10;;
14001;SDS011;7076;51.280;12.584;2023-04-24T23:46:56;4.57;;;2.28;;
14001;SDS011;7076;51.280;12.584;2023-04-24T23:52:00;3.45;;;2.72;;
14001;SDS011;7076;51.280;12.584;2023-04-24T23:57:03;5.25;;;2.20;;
